sensor_id;sensor_type;location;lat;lon;timestamp;P1;durP1;ratioP1;P2;durP2;ratioP2
30515;SDS011;17297;54.022;10.760;2023-07-31T00:01:10;1.00;;;0.75;;
30515;SDS011;17297;54.022;10.760;2023-07-31T00:03:36;2.15;;;0.90;;
30515;SDS011;17297;54.022;10.760;2023-07-31T00:06:01;2.95;;;1.00;;
30515;SDS011;17297;54.022;10.760;2023-07-31T00:08:26;1.85;;;0.98;;
30515;SDS011;17297;54.022;10.760;2023-07-31T00:10:52;1.52;;;0.98;;
30515;SDS011;17297;54.022;10.760;2023-07-31T00:13:18;5.53;;;1.38;;
30515;SDS011;17297;54.022;10.760;2023-07-31T00:15:43;1.15;;;0.90;;
30515;SDS011;17297;54.022;10.760;2023-07-31T00:18:08;1.30;;;1.17;;
30515;SDS011;17297;54.022;10.760;2023-07-31T00:20:34;2.05;;;1.13;;
30515;SDS011;17297;54.022;10.760;2023-07-31T00:22:59;0.93;;;0.82;;
30515;SDS011;17297;54.022;10.760;2023-07-31T00:25:24;1.40;;;0.73;;
30515;SDS011;17297;54.022;10.760;2023-07-31T00:27:49;1.13;;;0.93;;
30515;SDS011;17297;54.022;10.760;2023-07-31T00:30:15;4.35;;;0.95;;
30515;SDS011;17297;54.022;10.760;2023-07-31T00:32:41;1.35;;;0.85;;
30515;SDS011;17297;54.022;10.760;2023-07-31T00:35:06;1.15;;;1.08;;
30515;SDS011;17297;54.022;10.760;2023-07-31T00:37:32;0.98;;;0.95;;
30515;SDS011;17297;54.022;10.760;2023-07-31T00:39:57;1.13;;;1.02;;
30515;SDS011;17297;54.022;10.760;2023-07-31T00:42:22;1.52;;;0.95;;
30515;SDS011;17297;54.022;10.760;2023-07-31T00:44:50;0.93;;;0.75;;
30515;SDS011;17297;54.022;10.760;2023-07-31T00:47:15;0.88;;;0.85;;
30515;SDS011;17297;54.022;10.760;2023-07-31T00:49:40;3.65;;;1.20;;
30515;SDS011;17297;54.022;10.760;2023-07-31T00:52:06;1.42;;;0.82;;
30515;SDS011;17297;54.022;10.760;2023-07-31T00:54:32;0.88;;;0.88;;
30515;SDS011;17297;54.022;10.760;2023-07-31T00:56:59;1.00;;;0.90;;
30515;SDS011;17297;54.022;10.760;2023-07-31T00:59:24;1.58;;;0.95;;
30515;SDS011;17297;54.022;10.760;2023-07-31T01:01:50;2.55;;;1.02;;
30515;SDS011;17297;54.022;10.760;2023-07-31T01:04:15;2.90;;;0.90;;
30515;SDS011;17297;54.022;10.760;2023-07-31T01:12:25;1.00;;;0.90;;
30515;SDS011;17297;54.022;10.760;2023-07-31T01:17:31;0.80;;;0.80;;
30515;SDS011;17297;54.022;10.760;2023-07-31T01:19:58;1.80;;;1.10;;
30515;SDS011;17297;54.022;10.760;2023-07-31T01:22:45;1.00;;;0.90;;
30515;SDS011;17297;54.022;10.760;2023-07-31T01:25:47;1.27;;;0.93;;
30515;SDS011;17297;54.022;10.760;2023-07-31T01:28:14;0.80;;;0.80;;
30515;SDS011;17297;54.022;10.760;2023-07-31T01:30:47;4.35;;;2.45;;
30515;SDS011;17297;54.022;10.760;2023-07-31T01:33:17;3.58;;;1.00;;
30515;SDS011;17297;54.022;10.760;2023-07-31T01:35:46;0.95;;;0.93;;
30515;SDS011;17297;54.022;10.760;2023-07-31T01:38:14;3.35;;;1.20;;
30515;SDS011;17297;54.022;10.760;2023-07-31T01:40:43;1.50;;;0.93;;
30515;SDS011;17297;54.022;10.760;2023-07-31T01:43:09;1.92;;;1.25;;
30515;SDS011;17297;54.022;10.760;2023-07-31T01:45:34;1.08;;;0.70;;
30515;SDS011;17297;54.022;10.760;2023-07-31T01:48:00;2.03;;;0.90;;
30515;SDS011;17297;54.022;10.760;2023-07-31T01:50:25;1.42;;;1.33;;
30515;SDS011;17297;54.022;10.760;2023-07-31T01:52:50;1.15;;;1.00;;
30515;SDS011;17297;54.022;10.760;2023-07-31T01:55:16;1.00;;;0.90;;
30515;SDS011;17297;54.022;10.760;2023-07-31T01:57:42;1.83;;;0.93;;
30515;SDS011;17297;54.022;10.760;2023-07-31T02:00:07;0.95;;;0.90;;
30515;SDS011;17297;54.022;10.760;2023-07-31T02:02:38;3.17;;;1.00;;
30515;SDS011;17297;54.022;10.760;2023-07-31T02:05:04;2.55;;;1.10;;
30515;SDS011;17297;54.022;10.760;2023-07-31T02:07:29;2.13;;;1.25;;
30515;SDS011;17297;54.022;10.760;2023-07-31T02:09:55;4.10;;;1.65;;
30515;SDS011;17297;54.022;10.760;2023-07-31T02:12:20;1.20;;;0.90;;
30515;SDS011;17297;54.022;10.760;2023-07-31T02:14:46;1.25;;;1.00;;
30515;SDS011;17297;54.022;10.760;2023-07-31T02:17:11;1.20;;;1.08;;
30515;SDS011;17297;54.022;10.760;2023-07-31T02:19:36;1.13;;;1.00;;
30515;SDS011;17297;54.022;10.760;2023-07-31T02:22:02;1.55;;;0.93;;
30515;SDS011;17297;54.022;10.760;2023-07-31T02:24:27;2.28;;;1.25;;
30515;SDS011;17297;54.022;10.760;2023-07-31T02:26:53;2.33;;;1.08;;
30515;SDS011;17297;54.022;10.760;2023-07-31T02:29:18;1.52;;;1.08;;
30515;SDS011;17297;54.022;10.760;2023-07-31T02:31:44;1.63;;;1.17;;
30515;SDS011;17297;54.022;10.760;2023-07-31T02:34:09;1.52;;;1.15;;
30515;SDS011;17297;54.022;10.760;2023-07-31T02:36:34;0.85;;;0.85;;
30515;SDS011;17297;54.022;10.760;2023-07-31T02:39:00;1.05;;;0.95;;
30515;SDS011;17297;54.022;10.760;2023-07-31T02:41:25;1.98;;;1.15;;
30515;SDS011;17297;54.022;10.760;2023-07-31T02:43:50;1.17;;;0.93;;
30515;SDS011;17297;54.022;10.760;2023-07-31T02:46:16;1.73;;;0.90;;
30515;SDS011;17297;54.022;10.760;2023-07-31T02:48:41;2.17;;;0.98;;
30515;SDS011;17297;54.022;10.760;2023-07-31T02:51:07;1.48;;;0.95;;
30515;SDS011;17297;54.022;10.760;2023-07-31T02:53:32;0.80;;;0.80;;
30515;SDS011;17297;54.022;10.760;2023-07-31T02:55:57;1.95;;;1.05;;
30515;SDS011;17297;54.022;10.760;2023-07-31T02:58:24;1.38;;;1.27;;
30515;SDS011;17297;54.022;10.760;2023-07-31T03:00:49;3.22;;;1.63;;
30515;SDS011;17297;54.022;10.760;2023-07-31T03:03:14;1.08;;;0.98;;
30515;SDS011;17297;54.022;10.760;2023-07-31T03:05:40;1.75;;;1.48;;
30515;SDS011;17297;54.022;10.760;2023-07-31T03:08:05;1.20;;;1.10;;
30515;SDS011;17297;54.022;10.760;2023-07-31T03:10:30;1.58;;;0.93;;
30515;SDS011;17297;54.022;10.760;2023-07-31T03:12:57;1.23;;;1.13;;
30515;SDS011;17297;54.022;10.760;2023-07-31T03:15:22;1.25;;;0.93;;
30515;SDS011;17297;54.022;10.760;2023-07-31T03:17:48;1.75;;;1.20;;
30515;SDS011;17297;54.022;10.760;2023-07-31T03:20:13;2.10;;;1.20;;
30515;SDS011;17297;54.022;10.760;2023-07-31T03:22:38;3.00;;;1.58;;
30515;SDS011;17297;54.022;10.760;2023-07-31T03:25:04;2.65;;;1.33;;
30515;SDS011;17297;54.022;10.760;2023-07-31T03:27:30;1.80;;;1.08;;
30515;SDS011;17297;54.022;10.760;2023-07-31T03:29:56;1.42;;;1.33;;
30515;SDS011;17297;54.022;10.760;2023-07-31T03:32:22;3.03;;;1.27;;
30515;SDS011;17297;54.022;10.760;2023-07-31T03:34:47;6.03;;;2.28;;
30515;SDS011;17297;54.022;10.760;2023-07-31T03:37:12;2.53;;;1.15;;
30515;SDS011;17297;54.022;10.760;2023-07-31T03:39:38;2.30;;;0.98;;
30515;SDS011;17297;54.022;10.760;2023-07-31T03:42:03;1.48;;;1.20;;
30515;SDS011;17297;54.022;10.760;2023-07-31T03:44:29;1.05;;;0.95;;
30515;SDS011;17297;54.022;10.760;2023-07-31T03:46:54;3.05;;;1.48;;
30515;SDS011;17297;54.022;10.760;2023-07-31T03:49:20;1.17;;;1.08;;
30515;SDS011;17297;54.022;10.760;2023-07-31T03:51:46;1.75;;;1.17;;
30515;SDS011;17297;54.022;10.760;2023-07-31T03:54:12;3.17;;;1.55;;
30515;SDS011;17297;54.022;10.760;2023-07-31T03:56:38;2.33;;;1.20;;
30515;SDS011;17297;54.022;10.760;2023-07-31T03:59:03;3.00;;;1.30;;
30515;SDS011;17297;54.022;10.760;2023-07-31T04:01:29;2.88;;;1.48;;
30515;SDS011;17297;54.022;10.760;2023-07-31T04:03:55;1.50;;;1.13;;
30515;SDS011;17297;54.022;10.760;2023-07-31T04:06:20;1.67;;;1.10;;
30515;SDS011;17297;54.022;10.760;2023-07-31T04:08:46;1.67;;;1.35;;
30515;SDS011;17297;54.022;10.760;2023-07-31T04:11:11;2.15;;;1.20;;
30515;SDS011;17297;54.022;10.760;2023-07-31T04:13:38;2.28;;;1.55;;
30515;SDS011;17297;54.022;10.760;2023-07-31T04:16:04;2.17;;;1.60;;
30515;SDS011;17297;54.022;10.760;2023-07-31T04:18:29;2.38;;;1.40;;
30515;SDS011;17297;54.022;10.760;2023-07-31T04:20:57;2.83;;;1.30;;
30515;SDS011;17297;54.022;10.760;2023-07-31T04:23:26;1.85;;;1.23;;
30515;SDS011;17297;54.022;10.760;2023-07-31T04:25:51;1.80;;;1.33;;
30515;SDS011;17297;54.022;10.760;2023-07-31T04:28:17;2.47;;;1.52;;
30515;SDS011;17297;54.022;10.760;2023-07-31T04:30:42;2.50;;;1.38;;
30515;SDS011;17297;54.022;10.760;2023-07-31T04:33:08;2.75;;;1.85;;
30515;SDS011;17297;54.022;10.760;2023-07-31T04:35:33;2.70;;;1.40;;
30515;SDS011;17297;54.022;10.760;2023-07-31T04:37:58;1.25;;;1.15;;
30515;SDS011;17297;54.022;10.760;2023-07-31T04:40:24;2.17;;;1.50;;
30515;SDS011;17297;54.022;10.760;2023-07-31T04:42:49;3.42;;;1.33;;
30515;SDS011;17297;54.022;10.760;2023-07-31T04:45:15;2.75;;;1.50;;
30515;SDS011;17297;54.022;10.760;2023-07-31T04:47:40;1.40;;;1.10;;
30515;SDS011;17297;54.022;10.760;2023-07-31T04:50:06;1.70;;;1.30;;
30515;SDS011;17297;54.022;10.760;2023-07-31T04:52:31;1.90;;;1.63;;
30515;SDS011;17297;54.022;10.760;2023-07-31T04:54:57;2.33;;;1.73;;
30515;SDS011;17297;54.022;10.760;2023-07-31T04:57:22;2.95;;;1.50;;
30515;SDS011;17297;54.022;10.760;2023-07-31T04:59:47;3.20;;;1.52;;
30515;SDS011;17297;54.022;10.760;2023-07-31T05:02:13;1.50;;;1.40;;
30515;SDS011;17297;54.022;10.760;2023-07-31T05:04:38;1.70;;;1.27;;
30515;SDS011;17297;54.022;10.760;2023-07-31T05:07:04;2.67;;;1.50;;
30515;SDS011;17297;54.022;10.760;2023-07-31T05:09:29;1.67;;;1.30;;
30515;SDS011;17297;54.022;10.760;2023-07-31T05:11:54;3.65;;;1.60;;
30515;SDS011;17297;54.022;10.760;2023-07-31T05:14:20;1.83;;;1.73;;
30515;SDS011;17297;54.022;10.760;2023-07-31T05:16:45;1.67;;;1.50;;
30515;SDS011;17297;54.022;10.760;2023-07-31T05:19:11;2.28;;;1.48;;
30515;SDS011;17297;54.022;10.760;2023-07-31T05:21:36;2.67;;;2.47;;
30515;SDS011;17297;54.022;10.760;2023-07-31T05:24:02;4.10;;;1.90;;
30515;SDS011;17297;54.022;10.760;2023-07-31T05:26:27;2.33;;;2.00;;
30515;SDS011;17297;54.022;10.760;2023-07-31T05:28:52;1.83;;;1.70;;
30515;SDS011;17297;54.022;10.760;2023-07-31T05:31:18;1.92;;;1.50;;
30515;SDS011;17297;54.022;10.760;2023-07-31T05:33:43;3.33;;;1.85;;
30515;SDS011;17297;54.022;10.760;2023-07-31T05:36:09;2.95;;;1.63;;
30515;SDS011;17297;54.022;10.760;2023-07-31T05:38:34;2.15;;;1.95;;
30515;SDS011;17297;54.022;10.760;2023-07-31T05:40:59;2.42;;;2.00;;
30515;SDS011;17297;54.022;10.760;2023-07-31T05:43:25;2.45;;;1.90;;
30515;SDS011;17297;54.022;10.760;2023-07-31T05:45:50;2.88;;;1.63;;
30515;SDS011;17297;54.022;10.760;2023-07-31T05:48:16;5.65;;;2.38;;
30515;SDS011;17297;54.022;10.760;2023-07-31T05:50:42;2.85;;;2.05;;
30515;SDS011;17297;54.022;10.760;2023-07-31T05:53:08;2.10;;;1.90;;
30515;SDS011;17297;54.022;10.760;2023-07-31T05:55:33;2.97;;;2.10;;
30515;SDS011;17297;54.022;10.760;2023-07-31T05:57:59;2.65;;;2.45;;
30515;SDS011;17297;54.022;10.760;2023-07-31T06:00:24;2.20;;;2.00;;
30515;SDS011;17297;54.022;10.760;2023-07-31T06:02:52;2.70;;;2.50;;
30515;SDS011;17297;54.022;10.760;2023-07-31T06:05:18;3.85;;;2.03;;
30515;SDS011;17297;54.022;10.760;2023-07-31T06:07:44;2.58;;;2.38;;
30515;SDS011;17297;54.022;10.760;2023-07-31T06:10:09;3.05;;;2.42;;
30515;SDS011;17297;54.022;10.760;2023-07-31T06:12:35;2.38;;;2.17;;
30515;SDS011;17297;54.022;10.760;2023-07-31T06:15:01;2.20;;;2.00;;
30515;SDS011;17297;54.022;10.760;2023-07-31T06:17:28;2.28;;;2.08;;
30515;SDS011;17297;54.022;10.760;2023-07-31T06:19:54;2.03;;;1.75;;
30515;SDS011;17297;54.022;10.760;2023-07-31T06:22:19;3.50;;;1.90;;
30515;SDS011;17297;54.022;10.760;2023-07-31T06:24:44;2.30;;;2.00;;
30515;SDS011;17297;54.022;10.760;2023-07-31T06:27:10;1.88;;;1.77;;
30515;SDS011;17297;54.022;10.760;2023-07-31T06:29:36;2.92;;;2.40;;
30515;SDS011;17297;54.022;10.760;2023-07-31T06:32:01;2.92;;;2.03;;
30515;SDS011;17297;54.022;10.760;2023-07-31T06:34:27;3.00;;;1.77;;
30515;SDS011;17297;54.022;10.760;2023-07-31T06:36:52;2.08;;;1.88;;
30515;SDS011;17297;54.022;10.760;2023-07-31T06:39:18;2.30;;;1.90;;
30515;SDS011;17297;54.022;10.760;2023-07-31T06:41:43;2.17;;;1.88;;
30515;SDS011;17297;54.022;10.760;2023-07-31T06:44:09;2.03;;;1.80;;
30515;SDS011;17297;54.022;10.760;2023-07-31T06:46:35;2.33;;;2.00;;
30515;SDS011;17297;54.022;10.760;2023-07-31T06:49:00;2.90;;;2.22;;
30515;SDS011;17297;54.022;10.760;2023-07-31T06:51:26;2.72;;;2.53;;
30515;SDS011;17297;54.022;10.760;2023-07-31T06:53:51;2.20;;;2.03;;
30515;SDS011;17297;54.022;10.760;2023-07-31T06:56:16;3.40;;;1.80;;
30515;SDS011;17297;54.022;10.760;2023-07-31T06:58:42;2.67;;;2.00;;
30515;SDS011;17297;54.022;10.760;2023-07-31T07:01:07;2.60;;;2.40;;
30515;SDS011;17297;54.022;10.760;2023-07-31T07:03:32;1.95;;;1.75;;
30515;SDS011;17297;54.022;10.760;2023-07-31T07:05:58;1.90;;;1.70;;
30515;SDS011;17297;54.022;10.760;2023-07-31T07:08:23;1.70;;;1.60;;
30515;SDS011;17297;54.022;10.760;2023-07-31T07:10:49;1.95;;;1.77;;
30515;SDS011;17297;54.022;10.760;2023-07-31T07:13:15;1.85;;;1.60;;
30515;SDS011;17297;54.022;10.760;2023-07-31T07:15:40;2.15;;;1.70;;
30515;SDS011;17297;54.022;10.760;2023-07-31T07:18:05;3.00;;;1.58;;
30515;SDS011;17297;54.022;10.760;2023-07-31T07:20:31;1.80;;;1.65;;
30515;SDS011;17297;54.022;10.760;2023-07-31T07:22:57;2.15;;;1.95;;
30515;SDS011;17297;54.022;10.760;2023-07-31T07:25:22;1.70;;;1.60;;
30515;SDS011;17297;54.022;10.760;2023-07-31T07:27:47;1.50;;;1.40;;
30515;SDS011;17297;54.022;10.760;2023-07-31T07:30:13;1.60;;;1.50;;
30515;SDS011;17297;54.022;10.760;2023-07-31T07:32:39;1.33;;;1.23;;
30515;SDS011;17297;54.022;10.760;2023-07-31T07:35:04;1.52;;;1.42;;
30515;SDS011;17297;54.022;10.760;2023-07-31T07:37:30;1.25;;;1.15;;
30515;SDS011;17297;54.022;10.760;2023-07-31T07:39:56;1.30;;;1.20;;
30515;SDS011;17297;54.022;10.760;2023-07-31T07:42:22;1.20;;;1.10;;
30515;SDS011;17297;54.022;10.760;2023-07-31T07:44:49;1.33;;;1.10;;
30515;SDS011;17297;54.022;10.760;2023-07-31T07:47:14;1.30;;;1.20;;
30515;SDS011;17297;54.022;10.760;2023-07-31T07:49:40;15.02;;;1.75;;
30515;SDS011;17297;54.022;10.760;2023-07-31T07:52:05;1.30;;;1.20;;
30515;SDS011;17297;54.022;10.760;2023-07-31T07:54:31;1.23;;;1.13;;
30515;SDS011;17297;54.022;10.760;2023-07-31T07:56:56;0.90;;;0.90;;
30515;SDS011;17297;54.022;10.760;2023-07-31T07:59:22;1.00;;;0.90;;
30515;SDS011;17297;54.022;10.760;2023-07-31T08:01:47;1.63;;;1.40;;
30515;SDS011;17297;54.022;10.760;2023-07-31T08:04:13;1.48;;;1.20;;
30515;SDS011;17297;54.022;10.760;2023-07-31T08:06:38;1.10;;;1.05;;
30515;SDS011;17297;54.022;10.760;2023-07-31T08:09:04;0.98;;;0.98;;
30515;SDS011;17297;54.022;10.760;2023-07-31T08:11:32;0.98;;;0.88;;
30515;SDS011;17297;54.022;10.760;2023-07-31T08:13:58;1.30;;;1.05;;
30515;SDS011;17297;54.022;10.760;2023-07-31T08:16:23;1.10;;;1.00;;
30515;SDS011;17297;54.022;10.760;2023-07-31T08:18:48;1.67;;;1.20;;
30515;SDS011;17297;54.022;10.760;2023-07-31T08:21:14;1.77;;;1.55;;
30515;SDS011;17297;54.022;10.760;2023-07-31T08:23:40;1.00;;;0.80;;
30515;SDS011;17297;54.022;10.760;2023-07-31T08:26:05;1.17;;;1.08;;
30515;SDS011;17297;54.022;10.760;2023-07-31T08:28:31;1.10;;;1.00;;
30515;SDS011;17297;54.022;10.760;2023-07-31T08:30:56;2.10;;;1.08;;
30515;SDS011;17297;54.022;10.760;2023-07-31T08:33:21;1.00;;;1.00;;
30515;SDS011;17297;54.022;10.760;2023-07-31T08:35:47;2.08;;;1.10;;
30515;SDS011;17297;54.022;10.760;2023-07-31T08:38:13;2.10;;;1.40;;
30515;SDS011;17297;54.022;10.760;2023-07-31T08:40:38;0.93;;;0.93;;
30515;SDS011;17297;54.022;10.760;2023-07-31T08:43:04;1.50;;;1.40;;
30515;SDS011;17297;54.022;10.760;2023-07-31T08:45:29;1.30;;;1.20;;
30515;SDS011;17297;54.022;10.760;2023-07-31T08:47:55;1.40;;;1.30;;
30515;SDS011;17297;54.022;10.760;2023-07-31T08:50:24;1.13;;;1.10;;
30515;SDS011;17297;54.022;10.760;2023-07-31T08:52:50;1.27;;;1.27;;
30515;SDS011;17297;54.022;10.760;2023-07-31T08:55:16;2.35;;;1.17;;
30515;SDS011;17297;54.022;10.760;2023-07-31T08:57:43;1.20;;;1.10;;
30515;SDS011;17297;54.022;10.760;2023-07-31T09:00:09;1.33;;;1.23;;
30515;SDS011;17297;54.022;10.760;2023-07-31T09:02:41;1.15;;;1.10;;
30515;SDS011;17297;54.022;10.760;2023-07-31T09:05:10;1.10;;;1.00;;
30515;SDS011;17297;54.022;10.760;2023-07-31T09:07:36;1.02;;;0.95;;
30515;SDS011;17297;54.022;10.760;2023-07-31T09:10:02;1.13;;;1.02;;
30515;SDS011;17297;54.022;10.760;2023-07-31T09:12:28;1.38;;;1.27;;
30515;SDS011;17297;54.022;10.760;2023-07-31T09:14:54;1.33;;;0.90;;
30515;SDS011;17297;54.022;10.760;2023-07-31T09:22:43;1.13;;;1.05;;
30515;SDS011;17297;54.022;10.760;2023-07-31T09:25:16;2.50;;;1.25;;
30515;SDS011;17297;54.022;10.760;2023-07-31T09:30:19;1.17;;;1.08;;
30515;SDS011;17297;54.022;10.760;2023-07-31T09:32:45;1.27;;;1.13;;
30515;SDS011;17297;54.022;10.760;2023-07-31T09:35:13;1.20;;;1.10;;
30515;SDS011;17297;54.022;10.760;2023-07-31T09:37:43;0.80;;;0.80;;
30515;SDS011;17297;54.022;10.760;2023-07-31T09:40:09;1.05;;;1.05;;
30515;SDS011;17297;54.022;10.760;2023-07-31T09:42:50;1.33;;;1.15;;
30515;SDS011;17297;54.022;10.760;2023-07-31T09:45:15;1.00;;;1.00;;
30515;SDS011;17297;54.022;10.760;2023-07-31T09:47:47;0.88;;;0.88;;
30515;SDS011;17297;54.022;10.760;2023-07-31T09:50:13;1.45;;;1.23;;
30515;SDS011;17297;54.022;10.760;2023-07-31T09:52:39;0.70;;;0.70;;
30515;SDS011;17297;54.022;10.760;2023-07-31T09:55:05;1.75;;;0.90;;
30515;SDS011;17297;54.022;10.760;2023-07-31T09:57:31;1.33;;;0.80;;
30515;SDS011;17297;54.022;10.760;2023-07-31T09:59:58;1.52;;;1.08;;
30515;SDS011;17297;54.022;10.760;2023-07-31T10:02:23;1.42;;;1.00;;
30515;SDS011;17297;54.022;10.760;2023-07-31T10:04:51;1.40;;;1.10;;
30515;SDS011;17297;54.022;10.760;2023-07-31T10:07:20;0.90;;;0.90;;
30515;SDS011;17297;54.022;10.760;2023-07-31T10:09:48;0.73;;;0.73;;
30515;SDS011;17297;54.022;10.760;2023-07-31T10:12:14;1.02;;;1.00;;
30515;SDS011;17297;54.022;10.760;2023-07-31T10:14:44;1.27;;;1.00;;
30515;SDS011;17297;54.022;10.760;2023-07-31T10:17:09;0.82;;;0.82;;
30515;SDS011;17297;54.022;10.760;2023-07-31T10:19:35;0.70;;;0.70;;
30515;SDS011;17297;54.022;10.760;2023-07-31T10:22:02;1.20;;;0.93;;
30515;SDS011;17297;54.022;10.760;2023-07-31T10:24:28;0.60;;;0.60;;
30515;SDS011;17297;54.022;10.760;2023-07-31T10:26:54;0.77;;;0.77;;
30515;SDS011;17297;54.022;10.760;2023-07-31T10:29:23;1.85;;;1.02;;
30515;SDS011;17297;54.022;10.760;2023-07-31T10:31:49;0.70;;;0.70;;
30515;SDS011;17297;54.022;10.760;2023-07-31T10:34:16;1.38;;;0.88;;
30515;SDS011;17297;54.022;10.760;2023-07-31T10:36:41;0.82;;;0.82;;
30515;SDS011;17297;54.022;10.760;2023-07-31T10:39:32;1.15;;;0.90;;
30515;SDS011;17297;54.022;10.760;2023-07-31T10:41:59;1.27;;;1.05;;
30515;SDS011;17297;54.022;10.760;2023-07-31T10:44:24;1.13;;;1.00;;
30515;SDS011;17297;54.022;10.760;2023-07-31T10:46:49;0.90;;;0.90;;
30515;SDS011;17297;54.022;10.760;2023-07-31T10:49:22;0.90;;;0.90;;
30515;SDS011;17297;54.022;10.760;2023-07-31T10:51:48;0.80;;;0.80;;
30515;SDS011;17297;54.022;10.760;2023-07-31T10:54:13;0.93;;;0.90;;
30515;SDS011;17297;54.022;10.760;2023-07-31T10:56:44;0.70;;;0.70;;
30515;SDS011;17297;54.022;10.760;2023-07-31T10:59:11;0.75;;;0.75;;
30515;SDS011;17297;54.022;10.760;2023-07-31T11:01:53;1.13;;;1.00;;
30515;SDS011;17297;54.022;10.760;2023-07-31T11:04:25;1.20;;;1.08;;
30515;SDS011;17297;54.022;10.760;2023-07-31T11:06:55;1.02;;;1.00;;
30515;SDS011;17297;54.022;10.760;2023-07-31T11:09:27;1.00;;;0.90;;
30515;SDS011;17297;54.022;10.760;2023-07-31T11:11:55;0.80;;;0.80;;
30515;SDS011;17297;54.022;10.760;2023-07-31T11:14:20;0.98;;;0.90;;
30515;SDS011;17297;54.022;10.760;2023-07-31T11:16:46;0.98;;;0.98;;
30515;SDS011;17297;54.022;10.760;2023-07-31T11:19:15;0.90;;;0.90;;
30515;SDS011;17297;54.022;10.760;2023-07-31T11:21:47;1.00;;;0.95;;
30515;SDS011;17297;54.022;10.760;2023-07-31T11:24:13;3.13;;;1.50;;
30515;SDS011;17297;54.022;10.760;2023-07-31T11:26:38;0.88;;;0.88;;
30515;SDS011;17297;54.022;10.760;2023-07-31T11:29:10;1.30;;;1.10;;
30515;SDS011;17297;54.022;10.760;2023-07-31T11:31:41;1.08;;;0.95;;
30515;SDS011;17297;54.022;10.760;2023-07-31T11:34:08;0.95;;;0.90;;
30515;SDS011;17297;54.022;10.760;2023-07-31T11:36:33;1.30;;;1.20;;
30515;SDS011;17297;54.022;10.760;2023-07-31T11:39:05;0.93;;;0.70;;
30515;SDS011;17297;54.022;10.760;2023-07-31T11:41:31;1.63;;;1.25;;
30515;SDS011;17297;54.022;10.760;2023-07-31T11:43:59;1.58;;;0.93;;
30515;SDS011;17297;54.022;10.760;2023-07-31T11:46:25;2.85;;;1.70;;
30515;SDS011;17297;54.022;10.760;2023-07-31T11:48:51;1.10;;;1.00;;
30515;SDS011;17297;54.022;10.760;2023-07-31T11:51:16;1.00;;;0.90;;
30515;SDS011;17297;54.022;10.760;2023-07-31T11:53:47;0.93;;;0.90;;
30515;SDS011;17297;54.022;10.760;2023-07-31T11:56:19;2.20;;;1.20;;
30515;SDS011;17297;54.022;10.760;2023-07-31T11:58:46;1.00;;;0.80;;
30515;SDS011;17297;54.022;10.760;2023-07-31T12:01:14;1.33;;;1.00;;
30515;SDS011;17297;54.022;10.760;2023-07-31T12:03:40;0.80;;;0.80;;
30515;SDS011;17297;54.022;10.760;2023-07-31T12:06:07;1.33;;;1.10;;
30515;SDS011;17297;54.022;10.760;2023-07-31T12:08:33;1.00;;;0.90;;
30515;SDS011;17297;54.022;10.760;2023-07-31T12:11:05;1.02;;;0.88;;
30515;SDS011;17297;54.022;10.760;2023-07-31T12:13:32;1.10;;;1.02;;
30515;SDS011;17297;54.022;10.760;2023-07-31T12:15:59;0.80;;;0.80;;
30515;SDS011;17297;54.022;10.760;2023-07-31T12:18:29;1.23;;;0.93;;
30515;SDS011;17297;54.022;10.760;2023-07-31T12:20:59;1.10;;;1.00;;
30515;SDS011;17297;54.022;10.760;2023-07-31T12:23:26;1.83;;;0.80;;
30515;SDS011;17297;54.022;10.760;2023-07-31T12:26:09;1.00;;;0.90;;
30515;SDS011;17297;54.022;10.760;2023-07-31T12:28:43;0.82;;;0.65;;
30515;SDS011;17297;54.022;10.760;2023-07-31T12:33:39;0.68;;;0.68;;
30515;SDS011;17297;54.022;10.760;2023-07-31T12:36:09;0.77;;;0.77;;
30515;SDS011;17297;54.022;10.760;2023-07-31T12:38:36;0.77;;;0.77;;
30515;SDS011;17297;54.022;10.760;2023-07-31T12:41:01;0.60;;;0.60;;
30515;SDS011;17297;54.022;10.760;2023-07-31T12:43:27;0.45;;;0.45;;
30515;SDS011;17297;54.022;10.760;2023-07-31T12:45:53;0.80;;;0.55;;
30515;SDS011;17297;54.022;10.760;2023-07-31T12:48:20;0.77;;;0.55;;
30515;SDS011;17297;54.022;10.760;2023-07-31T12:50:45;0.57;;;0.57;;
30515;SDS011;17297;54.022;10.760;2023-07-31T12:53:10;0.70;;;0.70;;
30515;SDS011;17297;54.022;10.760;2023-07-31T12:55:36;0.70;;;0.70;;
30515;SDS011;17297;54.022;10.760;2023-07-31T12:58:02;0.60;;;0.60;;
30515;SDS011;17297;54.022;10.760;2023-07-31T13:00:27;0.60;;;0.60;;
30515;SDS011;17297;54.022;10.760;2023-07-31T13:02:54;0.70;;;0.70;;
30515;SDS011;17297;54.022;10.760;2023-07-31T13:05:20;0.80;;;0.70;;
30515;SDS011;17297;54.022;10.760;2023-07-31T13:07:46;0.52;;;0.52;;
30515;SDS011;17297;54.022;10.760;2023-07-31T13:10:12;0.57;;;0.57;;
30515;SDS011;17297;54.022;10.760;2023-07-31T13:12:37;0.60;;;0.60;;
30515;SDS011;17297;54.022;10.760;2023-07-31T13:15:03;0.75;;;0.70;;
30515;SDS011;17297;54.022;10.760;2023-07-31T13:17:30;0.50;;;0.50;;
30515;SDS011;17297;54.022;10.760;2023-07-31T13:19:55;0.95;;;0.63;;
30515;SDS011;17297;54.022;10.760;2023-07-31T13:22:20;0.68;;;0.57;;
30515;SDS011;17297;54.022;10.760;2023-07-31T13:24:46;0.63;;;0.63;;
30515;SDS011;17297;54.022;10.760;2023-07-31T13:27:11;0.70;;;0.70;;
30515;SDS011;17297;54.022;10.760;2023-07-31T13:29:36;0.90;;;0.73;;
30515;SDS011;17297;54.022;10.760;2023-07-31T13:32:02;1.95;;;0.80;;
30515;SDS011;17297;54.022;10.760;2023-07-31T13:34:27;0.70;;;0.70;;
30515;SDS011;17297;54.022;10.760;2023-07-31T13:36:54;0.75;;;0.60;;
30515;SDS011;17297;54.022;10.760;2023-07-31T13:39:20;0.77;;;0.77;;
30515;SDS011;17297;54.022;10.760;2023-07-31T13:41:45;1.27;;;0.60;;
30515;SDS011;17297;54.022;10.760;2023-07-31T13:44:10;1.35;;;1.00;;
30515;SDS011;17297;54.022;10.760;2023-07-31T13:46:36;0.60;;;0.60;;
30515;SDS011;17297;54.022;10.760;2023-07-31T13:49:01;0.68;;;0.68;;
30515;SDS011;17297;54.022;10.760;2023-07-31T13:51:26;1.25;;;0.60;;
30515;SDS011;17297;54.022;10.760;2023-07-31T13:53:52;0.75;;;0.60;;
30515;SDS011;17297;54.022;10.760;2023-07-31T13:56:18;0.60;;;0.60;;
30515;SDS011;17297;54.022;10.760;2023-07-31T13:58:43;0.85;;;0.80;;
30515;SDS011;17297;54.022;10.760;2023-07-31T14:01:08;0.90;;;0.90;;
30515;SDS011;17297;54.022;10.760;2023-07-31T14:03:34;1.55;;;0.80;;
30515;SDS011;17297;54.022;10.760;2023-07-31T14:05:59;1.05;;;0.80;;
30515;SDS011;17297;54.022;10.760;2023-07-31T14:08:25;0.63;;;0.60;;
30515;SDS011;17297;54.022;10.760;2023-07-31T14:10:50;2.20;;;0.80;;
30515;SDS011;17297;54.022;10.760;2023-07-31T14:13:15;1.27;;;0.75;;
30515;SDS011;17297;54.022;10.760;2023-07-31T14:15:44;0.77;;;0.60;;
30515;SDS011;17297;54.022;10.760;2023-07-31T14:18:09;0.95;;;0.80;;
30515;SDS011;17297;54.022;10.760;2023-07-31T14:20:35;0.90;;;0.90;;
30515;SDS011;17297;54.022;10.760;2023-07-31T14:23:00;0.98;;;0.90;;
30515;SDS011;17297;54.022;10.760;2023-07-31T14:25:26;0.77;;;0.77;;
30515;SDS011;17297;54.022;10.760;2023-07-31T14:27:51;1.10;;;1.05;;
30515;SDS011;17297;54.022;10.760;2023-07-31T14:30:16;0.68;;;0.68;;
30515;SDS011;17297;54.022;10.760;2023-07-31T14:32:43;1.13;;;1.02;;
30515;SDS011;17297;54.022;10.760;2023-07-31T14:35:08;1.98;;;1.30;;
30515;SDS011;17297;54.022;10.760;2023-07-31T14:37:39;1.40;;;1.30;;
30515;SDS011;17297;54.022;10.760;2023-07-31T14:40:06;0.90;;;0.90;;
30515;SDS011;17297;54.022;10.760;2023-07-31T14:42:32;0.98;;;0.75;;
30515;SDS011;17297;54.022;10.760;2023-07-31T14:44:58;1.38;;;0.90;;
30515;SDS011;17297;54.022;10.760;2023-07-31T14:47:23;0.90;;;0.80;;